Time;durP1;ratioP1;P1;durP2;ratioP2;P2;SDS_P1;SDS_P2;PMS_P1;PMS_P2;Temp;Humidity;BMP_temperature;BMP_pressure;BME280_temperature;BME280_humidity;BME280_pressure;Samples;Min_cycle;Max_cycle;Signal;HPM_P1;HPM_P2
2022/03/20 00:00:26;;;;;;;8.52;4.93;;;;;;;;;;5057276;28;20040;-71
2022/03/20 00:02:54;;;;;;;11.02;4.70;;;;;;;;;;5053885;28;20052;-71
2022/03/20 00:05:20;;;;;;;8.60;4.55;;;;;;;;;;5070976;28;20045;-70
2022/03/20 00:07:46;;;;;;;10.98;4.80;;;;;;;;;;5054356;28;20101;-71
2022/03/20 00:10:13;;;;;;;10.13;5.20;;;;;;;;;;5053695;28;20097;-71
2022/03/20 00:12:39;;;;;;;9.38;4.72;;;;;;;;;;5053439;28;20054;-71
2022/03/20 00:15:06;;;;;;;7.60;4.35;;;;;;;;;;5053739;28;20037;-71
2022/03/20 00:17:32;;;;;;;6.90;4.30;;;;;;;;;;5053133;28;20488;-71
2022/03/20 00:19:58;;;;;;;10.63;4.72;;;;;;;;;;5053625;28;20041;-71
2022/03/20 00:22:25;;;;;;;8.43;4.85;;;;;;;;;;5051372;28;20045;-71
2022/03/20 00:24:51;;;;;;;7.95;4.63;;;;;;;;;;5053517;28;20051;-71
2022/03/20 00:27:17;;;;;;;11.88;5.35;;;;;;;;;;5049185;28;20377;-71
2022/03/20 00:29:44;;;;;;;12.00;4.90;;;;;;;;;;5045188;28;20401;-71
2022/03/20 00:32:11;;;;;;;11.38;4.80;;;;;;;;;;5071848;28;20540;-71
2022/03/20 00:34:37;;;;;;;9.68;4.68;;;;;;;;;;5053599;28;20119;-71
2022/03/20 00:37:04;;;;;;;10.77;5.05;;;;;;;;;;5050152;28;20048;-71
2022/03/20 00:39:30;;;;;;;8.90;4.70;;;;;;;;;;5046184;28;20474;-71
2022/03/20 00:41:56;;;;;;;9.10;4.40;;;;;;;;;;5053387;28;20051;-71
2022/03/20 00:44:22;;;;;;;10.75;4.55;;;;;;;;;;5053609;28;20094;-71
2022/03/20 00:46:48;;;;;;;11.10;5.00;;;;;;;;;;5051798;28;20123;-71
2022/03/20 00:49:15;;;;;;;9.52;5.15;;;;;;;;;;5051371;28;20505;-71
2022/03/20 00:51:42;;;;;;;8.48;4.85;;;;;;;;;;5070434;28;20094;-71
2022/03/20 00:54:08;;;;;;;8.43;4.78;;;;;;;;;;5050915;28;20040;-71
2022/03/20 00:56:34;;;;;;;7.32;4.65;;;;;;;;;;5070826;28;20046;-71
2022/03/20 00:59:01;;;;;;;10.85;4.93;;;;;;;;;;5050677;28;20117;-71
2022/03/20 01:01:28;;;;;;;10.02;4.63;;;;;;;;;;5052615;28;20047;-71
2022/03/20 01:03:54;;;;;;;11.27;5.25;;;;;;;;;;5051596;28;20068;-71
2022/03/20 01:06:22;;;;;;;8.65;4.88;;;;;;;;;;5051757;28;20527;-71
2022/03/20 01:08:49;;;;;;;9.07;5.35;;;;;;;;;;5053135;28;20123;-70
2022/03/20 01:11:15;;;;;;;10.90;5.45;;;;;;;;;;5053587;28;20044;-71
2022/03/20 01:13:41;;;;;;;10.27;4.75;;;;;;;;;;5056988;28;20532;-71
2022/03/20 01:16:07;;;;;;;10.57;5.00;;;;;;;;;;5056579;28;20118;-71
2022/03/20 01:18:33;;;;;;;14.10;4.90;;;;;;;;;;5051832;28;20049;-71
2022/03/20 01:21:00;;;;;;;9.35;5.30;;;;;;;;;;5055472;28;20048;-71
2022/03/20 01:23:26;;;;;;;13.00;5.57;;;;;;;;;;5056287;28;20044;-71
2022/03/20 01:25:52;;;;;;;12.40;5.63;;;;;;;;;;5057013;28;20040;-71
2022/03/20 01:28:19;;;;;;;10.38;5.70;;;;;;;;;;5054420;28;20044;-70
2022/03/20 01:30:47;;;;;;;12.82;7.30;;;;;;;;;;5056897;28;20041;-71
2022/03/20 01:33:14;;;;;;;10.98;6.10;;;;;;;;;;5071690;28;20404;-70
2022/03/20 01:35:40;;;;;;;12.30;6.47;;;;;;;;;;5055205;28;20055;-71
2022/03/20 01:38:06;;;;;;;12.88;6.55;;;;;;;;;;5070874;28;20119;-71
2022/03/20 01:40:33;;;;;;;12.43;6.20;;;;;;;;;;5048936;28;20494;-71
2022/03/20 01:42:59;;;;;;;12.27;6.63;;;;;;;;;;5039650;28;20032;-71
2022/03/20 01:45:25;;;;;;;13.95;7.57;;;;;;;;;;5065978;28;20043;-70
2022/03/20 01:47:52;;;;;;;11.02;6.68;;;;;;;;;;5050487;28;20071;-71
2022/03/20 01:50:19;;;;;;;12.90;6.85;;;;;;;;;;5054255;28;20102;-70
2022/03/20 01:52:45;;;;;;;13.05;7.05;;;;;;;;;;5035784;28;20037;-71
2022/03/20 01:55:12;;;;;;;14.02;7.18;;;;;;;;;;5056158;28;20044;-71
2022/03/20 01:57:42;;;;;;;14.20;8.10;;;;;;;;;;5039644;28;20032;-70
2022/03/20 02:00:09;;;;;;;13.70;7.88;;;;;;;;;;5060148;28;20040;-71
2022/03/20 02:02:35;;;;;;;14.73;8.05;;;;;;;;;;5051631;28;20056;-71
2022/03/20 02:05:02;;;;;;;12.40;7.88;;;;;;;;;;5051854;28;20049;-71
2022/03/20 02:07:28;;;;;;;17.63;8.27;;;;;;;;;;5047030;28;20049;-71
2022/03/20 02:09:54;;;;;;;13.68;7.30;;;;;;;;;;5071724;28;20459;-71
2022/03/20 02:12:20;;;;;;;15.07;7.22;;;;;;;;;;5072406;28;20048;-71
2022/03/20 02:14:47;;;;;;;14.15;8.00;;;;;;;;;;5073036;28;20043;-70
2022/03/20 02:17:13;;;;;;;16.02;7.70;;;;;;;;;;5053574;28;20502;-71
2022/03/20 02:19:39;;;;;;;15.32;8.05;;;;;;;;;;5068633;28;20057;-71
2022/03/20 02:22:06;;;;;;;15.40;7.85;;;;;;;;;;5047757;28;20036;-70
2022/03/20 02:24:41;;;;;;;16.77;7.93;;;;;;;;;;5054621;28;20494;-71
2022/03/20 02:27:20;;;;;;;13.02;7.85;;;;;;;;;;5053128;28;20503;-70
2022/03/20 02:29:53;;;;;;;14.07;8.25;;;;;;;;;;5056263;28;20076;-70
2022/03/20 02:32:23;;;;;;;12.43;8.13;;;;;;;;;;5060382;28;20504;-71
2022/03/20 02:34:50;;;;;;;12.63;7.25;;;;;;;;;;5055017;28;20076;-70
2022/03/20 02:37:19;;;;;;;15.07;7.80;;;;;;;;;;5053858;28;20044;-70
2022/03/20 02:39:46;;;;;;;14.35;7.78;;;;;;;;;;5053085;28;20049;-70
2022/03/20 02:42:13;;;;;;;14.65;8.52;;;;;;;;;;5051935;28;20170;-71
2022/03/20 02:45:00;;;;;;;14.32;8.82;;;;;;;;;;5053912;28;20536;-71
2022/03/20 02:47:29;;;;;;;13.88;8.18;;;;;;;;;;5053181;28;20163;-71
2022/03/20 02:49:55;;;;;;;15.13;8.75;;;;;;;;;;5073516;28;20061;-71
2022/03/20 02:52:26;;;;;;;16.42;7.95;;;;;;;;;;5054438;28;20487;-70
2022/03/20 02:54:52;;;;;;;13.10;7.72;;;;;;;;;;5054788;28;20386;-70
2022/03/20 02:57:19;;;;;;;15.82;7.60;;;;;;;;;;5037153;28;20055;-70
2022/03/20 02:59:45;;;;;;;11.77;7.32;;;;;;;;;;5054044;28;20480;-71
2022/03/20 03:02:11;;;;;;;14.75;7.95;;;;;;;;;;5054318;28;20045;-71
2022/03/20 03:04:43;;;;;;;14.30;8.48;;;;;;;;;;5072111;28;20089;-70
2022/03/20 03:07:10;;;;;;;14.52;9.00;;;;;;;;;;5037604;28;20115;-71
2022/03/20 03:12:21;;;;;;;16.98;8.57;;;;;;;;;;5053386;28;21583;-70
2022/03/20 03:17:32;;;;;;;15.85;9.00;;;;;;;;;;5051066;28;20048;-70
2022/03/20 03:19:58;;;;;;;16.10;9.18;;;;;;;;;;5054392;28;20134;-71
2022/03/20 03:22:27;;;;;;;14.05;8.20;;;;;;;;;;5051916;28;20097;-70
2022/03/20 03:24:54;;;;;;;13.38;8.02;;;;;;;;;;5053803;28;20078;-71
2022/03/20 03:27:20;;;;;;;16.67;9.35;;;;;;;;;;5052907;28;20062;-70
2022/03/20 03:29:46;;;;;;;16.33;9.38;;;;;;;;;;5053780;28;20037;-70
2022/03/20 03:32:12;;;;;;;19.15;9.27;;;;;;;;;;5053598;28;20129;-70
2022/03/20 03:37:23;;;;;;;17.23;10.00;;;;;;;;;;5054799;28;20131;-70
2022/03/20 03:39:49;;;;;;;16.88;9.35;;;;;;;;;;5054800;28;20048;-70
2022/03/20 03:42:15;;;;;;;15.02;8.93;;;;;;;;;;5052928;28;20045;-70
2022/03/20 03:44:42;;;;;;;14.88;8.25;;;;;;;;;;5048811;28;20036;-70
2022/03/20 03:47:08;;;;;;;17.45;9.18;;;;;;;;;;5054671;28;20044;-70
2022/03/20 03:49:34;;;;;;;15.95;9.75;;;;;;;;;;5053050;28;20056;-70
2022/03/20 03:52:04;;;;;;;18.73;10.15;;;;;;;;;;5053606;28;20040;-70
2022/03/20 03:54:30;;;;;;;19.20;10.02;;;;;;;;;;5054967;28;20076;-70
2022/03/20 03:56:57;;;;;;;19.23;9.43;;;;;;;;;;5054466;28;20036;-70
2022/03/20 03:59:23;;;;;;;21.45;9.52;;;;;;;;;;5054553;28;20056;-71
2022/03/20 04:01:49;;;;;;;18.35;10.68;;;;;;;;;;5037945;28;20045;-70
2022/03/20 04:04:15;;;;;;;18.88;9.32;;;;;;;;;;5053116;28;20045;-70
2022/03/20 04:06:42;;;;;;;16.08;9.55;;;;;;;;;;5052727;28;20043;-70
2022/03/20 04:09:08;;;;;;;15.10;9.38;;;;;;;;;;5046679;28;20159;-71
2022/03/20 04:11:34;;;;;;;19.00;11.02;;;;;;;;;;5071842;28;20041;-71
2022/03/20 04:14:00;;;;;;;16.15;10.40;;;;;;;;;;5051255;28;20111;-71
2022/03/20 04:16:26;;;;;;;17.80;10.52;;;;;;;;;;5051916;28;20044;-70
2022/03/20 04:18:52;;;;;;;20.40;10.20;;;;;;;;;;5070655;28;20478;-71
2022/03/20 04:21:18;;;;;;;17.77;10.07;;;;;;;;;;5050864;28;20209;-70
2022/03/20 04:23:49;;;;;;;16.35;9.85;;;;;;;;;;5048884;28;20500;-70
2022/03/20 04:26:20;;;;;;;16.95;9.77;;;;;;;;;;5052879;28;20041;-70
2022/03/20 04:28:47;;;;;;;15.23;10.10;;;;;;;;;;5051524;28;20044;-71
2022/03/20 04:31:17;;;;;;;18.83;11.15;;;;;;;;;;5059076;28;20048;-70
2022/03/20 04:33:44;;;;;;;19.23;10.52;;;;;;;;;;5053303;28;20036;-70
2022/03/20 04:36:10;;;;;;;17.60;10.85;;;;;;;;;;5052919;28;20051;-70
2022/03/20 04:38:39;;;;;;;21.00;11.25;;;;;;;;;;5054207;28;20044;-70
2022/03/20 04:41:05;;;;;;;18.85;11.15;;;;;;;;;;5053992;28;20052;-70
2022/03/20 04:43:31;;;;;;;16.83;10.20;;;;;;;;;;5054342;28;20048;-70
2022/03/20 04:45:58;;;;;;;17.63;11.18;;;;;;;;;;5053597;28;20052;-70
2022/03/20 04:59:24;;;;;;;18.65;11.15;;;;;;;;;;5050705;28;20054;-70
2022/03/20 05:01:50;;;;;;;17.85;10.73;;;;;;;;;;5055937;28;20075;-70
2022/03/20 05:04:16;;;;;;;20.67;11.63;;;;;;;;;;5040932;28;20044;-70
2022/03/20 05:06:43;;;;;;;21.35;12.13;;;;;;;;;;5057916;28;20037;-70
2022/03/20 05:14:39;;;;;;;19.73;11.63;;;;;;;;;;5042835;28;20392;-70
2022/03/20 05:17:09;;;;;;;23.33;11.70;;;;;;;;;;5053763;28;20055;-71
2022/03/20 05:19:36;;;;;;;18.60;12.30;;;;;;;;;;5050577;28;20118;-70
2022/03/20 05:22:06;;;;;;;20.40;12.95;;;;;;;;;;5058069;28;20032;-71
2022/03/20 05:24:35;;;;;;;20.65;12.68;;;;;;;;;;5056070;28;20036;-71
2022/03/20 05:27:01;;;;;;;21.67;12.98;;;;;;;;;;5050312;28;20047;-71
2022/03/20 05:29:27;;;;;;;18.27;11.85;;;;;;;;;;5056377;28;20048;-71
2022/03/20 05:31:53;;;;;;;21.88;12.75;;;;;;;;;;5074350;28;20036;-71
2022/03/20 05:34:20;;;;;;;22.00;12.50;;;;;;;;;;5072910;28;20037;-70
2022/03/20 05:36:47;;;;;;;20.30;11.95;;;;;;;;;;5058169;28;20032;-70
2022/03/20 05:39:13;;;;;;;20.15;12.85;;;;;;;;;;5057083;28;20055;-70
2022/03/20 05:41:51;;;;;;;20.38;12.93;;;;;;;;;;5057042;28;20385;-70
2022/03/20 05:44:18;;;;;;;22.58;13.00;;;;;;;;;;5056616;28;20048;-70
2022/03/20 05:46:46;;;;;;;19.17;12.23;;;;;;;;;;5056013;28;20040;-70
2022/03/20 05:49:12;;;;;;;18.67;12.57;;;;;;;;;;5054758;28;20067;-70
2022/03/20 05:51:40;;;;;;;21.98;13.40;;;;;;;;;;5070102;28;20041;-70
2022/03/20 05:54:06;;;;;;;23.20;13.35;;;;;;;;;;5070596;28;20037;-70
2022/03/20 05:59:17;;;;;;;22.92;12.82;;;;;;;;;;5040610;28;20063;-70
2022/03/20 06:01:43;;;;;;;20.25;13.40;;;;;;;;;;5055673;28;20145;-71
2022/03/20 06:04:10;;;;;;;22.55;13.23;;;;;;;;;;5055078;28;20537;-70
2022/03/20 06:06:37;;;;;;;22.58;12.77;;;;;;;;;;5054562;28;20044;-70
2022/03/20 06:09:06;;;;;;;21.80;13.32;;;;;;;;;;5055173;28;20043;-70
2022/03/20 06:11:34;;;;;;;23.50;13.15;;;;;;;;;;5054854;28;20032;-71
2022/03/20 06:14:00;;;;;;;23.42;12.90;;;;;;;;;;5058113;28;20151;-71
2022/03/20 06:16:28;;;;;;;20.08;13.65;;;;;;;;;;5054353;28;20128;-70
2022/03/20 06:18:54;;;;;;;23.73;13.43;;;;;;;;;;5073034;28;20044;-70
2022/03/20 06:21:20;;;;;;;19.55;13.48;;;;;;;;;;5053678;28;20048;-71
2022/03/20 06:23:46;;;;;;;21.20;13.50;;;;;;;;;;5055265;28;20136;-71
2022/03/20 06:26:13;;;;;;;20.35;13.27;;;;;;;;;;5051719;28;20041;-71
2022/03/20 06:28:40;;;;;;;21.52;13.88;;;;;;;;;;5051532;28;20045;-71
2022/03/20 06:31:12;;;;;;;25.50;12.65;;;;;;;;;;5069540;28;20111;-71
2022/03/20 06:33:39;;;;;;;24.10;13.05;;;;;;;;;;5055198;28;20094;-71
2022/03/20 06:36:06;;;;;;;24.27;13.30;;;;;;;;;;5049047;28;20093;-71
2022/03/20 06:38:35;;;;;;;23.23;13.90;;;;;;;;;;5050384;28;20036;-71
2022/03/20 06:41:02;;;;;;;25.50;14.27;;;;;;;;;;5054683;28;20048;-71
2022/03/20 06:43:28;;;;;;;27.02;13.40;;;;;;;;;;5055290;28;20040;-70
2022/03/20 06:45:55;;;;;;;26.08;13.98;;;;;;;;;;5054991;28;20377;-65
2022/03/20 06:48:22;;;;;;;19.17;13.25;;;;;;;;;;5015704;28;1099448;-65
2022/03/20 06:50:48;;;;;;;21.30;13.52;;;;;;;;;;5054794;28;20119;-65
2022/03/20 06:53:14;;;;;;;23.88;13.65;;;;;;;;;;5054317;28;20106;-65
2022/03/20 06:55:41;;;;;;;22.75;14.18;;;;;;;;;;5054297;28;20477;-65
2022/03/20 06:58:07;;;;;;;21.85;13.27;;;;;;;;;;5056387;28;20055;-64
2022/03/20 07:00:33;;;;;;;30.70;13.68;;;;;;;;;;5054264;28;20039;-65
2022/03/20 07:03:00;;;;;;;19.77;12.40;;;;;;;;;;5055488;28;20419;-65
2022/03/20 07:05:26;;;;;;;24.10;15.13;;;;;;;;;;5055455;28;20091;-65
2022/03/20 07:07:54;;;;;;;23.48;14.07;;;;;;;;;;5053682;28;20040;-65
2022/03/20 07:10:24;;;;;;;23.63;12.50;;;;;;;;;;5051237;28;20400;-65
2022/03/20 07:12:50;;;;;;;21.58;12.65;;;;;;;;;;5059013;28;20039;-65
2022/03/20 07:15:19;;;;;;;21.65;13.48;;;;;;;;;;5053043;28;20044;-64
2022/03/20 07:17:47;;;;;;;21.45;13.98;;;;;;;;;;5053666;28;20070;-64
2022/03/20 07:20:15;;;;;;;23.15;13.20;;;;;;;;;;5051475;28;20048;-64
2022/03/20 07:22:41;;;;;;;25.52;14.50;;;;;;;;;;5054101;28;20044;-64
2022/03/20 07:30:39;;;;;;;23.10;14.35;;;;;;;;;;5052594;28;20041;-65
2022/03/20 07:33:05;;;;;;;23.55;14.65;;;;;;;;;;5053438;28;20504;-64
2022/03/20 07:35:31;;;;;;;23.27;14.05;;;;;;;;;;5054302;28;20093;-65
2022/03/20 07:37:57;;;;;;;25.65;15.25;;;;;;;;;;5053702;28;20040;-64
2022/03/20 07:40:23;;;;;;;25.50;14.05;;;;;;;;;;5054339;28;20053;-64
2022/03/20 07:42:49;;;;;;;24.67;14.35;;;;;;;;;;5050244;28;20052;-64
2022/03/20 07:45:15;;;;;;;25.08;14.30;;;;;;;;;;5069725;28;20557;-65
2022/03/20 07:47:41;;;;;;;25.55;14.77;;;;;;;;;;5048825;28;20555;-64
2022/03/20 07:50:08;;;;;;;24.75;15.40;;;;;;;;;;5053664;28;20512;-65
2022/03/20 07:52:35;;;;;;;25.80;15.07;;;;;;;;;;5054431;28;20059;-64
2022/03/20 07:55:02;;;;;;;27.00;15.13;;;;;;;;;;5053207;28;20036;-65
2022/03/20 07:57:31;;;;;;;23.77;14.20;;;;;;;;;;5068151;28;20040;-65
2022/03/20 07:59:58;;;;;;;23.50;14.65;;;;;;;;;;5048815;28;20045;-65
2022/03/20 08:02:24;;;;;;;23.27;15.18;;;;;;;;;;5070172;28;20044;-65
2022/03/20 08:04:53;;;;;;;23.70;15.02;;;;;;;;;;5049935;28;20152;-64
2022/03/20 08:07:19;;;;;;;22.23;14.13;;;;;;;;;;5054260;28;20114;-64
2022/03/20 08:09:46;;;;;;;25.52;15.25;;;;;;;;;;5053792;28;20044;-64
2022/03/20 08:12:12;;;;;;;23.15;13.15;;;;;;;;;;5056918;28;20068;-65
2022/03/20 08:14:39;;;;;;;25.42;15.45;;;;;;;;;;5036570;28;20473;-64
2022/03/20 08:17:09;;;;;;;24.10;16.08;;;;;;;;;;5037520;28;20050;-65
2022/03/20 08:19:35;;;;;;;24.20;15.00;;;;;;;;;;5051986;28;20051;-65
2022/03/20 08:22:05;;;;;;;24.60;15.05;;;;;;;;;;5052515;28;20485;-65
2022/03/20 08:24:31;;;;;;;24.35;15.60;;;;;;;;;;5054247;28;20056;-65
2022/03/20 08:26:57;;;;;;;26.23;16.10;;;;;;;;;;5054200;28;20064;-65
2022/03/20 08:29:23;;;;;;;25.77;15.70;;;;;;;;;;5052728;28;20036;-65
2022/03/20 08:31:50;;;;;;;27.05;15.38;;;;;;;;;;5054759;28;20032;-65
2022/03/20 08:34:17;;;;;;;24.42;15.80;;;;;;;;;;5050914;28;20443;-66
2022/03/20 08:36:44;;;;;;;28.45;14.35;;;;;;;;;;5045737;28;20037;-66
2022/03/20 08:39:10;;;;;;;26.80;16.25;;;;;;;;;;5071640;28;20040;-66
2022/03/20 08:41:36;;;;;;;22.75;15.50;;;;;;;;;;5053888;28;20251;-65
2022/03/20 08:44:08;;;;;;;25.42;15.68;;;;;;;;;;5051645;28;20496;-65
2022/03/20 08:46:34;;;;;;;26.45;15.38;;;;;;;;;;5052813;28;20041;-66
2022/03/20 08:49:05;;;;;;;24.88;15.40;;;;;;;;;;5053677;28;20052;-66
2022/03/20 08:51:32;;;;;;;25.48;16.23;;;;;;;;;;5053005;28;20089;-66
2022/03/20 08:53:59;;;;;;;25.08;16.00;;;;;;;;;;5044070;28;20074;-66
2022/03/20 08:56:25;;;;;;;24.35;16.23;;;;;;;;;;5045607;28;20400;-66
2022/03/20 08:58:51;;;;;;;25.08;16.08;;;;;;;;;;5050866;28;20040;-65
2022/03/20 09:01:17;;;;;;;24.75;16.30;;;;;;;;;;5051177;28;20056;-65
2022/03/20 09:03:49;;;;;;;26.85;16.50;;;;;;;;;;5046179;28;20117;-65
2022/03/20 09:06:17;;;;;;;24.88;16.67;;;;;;;;;;5045649;28;20497;-65
2022/03/20 09:08:43;;;;;;;25.67;16.38;;;;;;;;;;5045195;28;20106;-65
2022/03/20 09:11:09;;;;;;;25.00;17.05;;;;;;;;;;5050860;28;20036;-65
2022/03/20 09:13:35;;;;;;;27.50;16.98;;;;;;;;;;5052876;28;20040;-65
2022/03/20 09:18:59;;;;;;;26.00;17.05;;;;;;;;;;5052943;28;20145;-65
2022/03/20 09:21:25;;;;;;;26.10;16.13;;;;;;;;;;5053355;28;20133;-65
2022/03/20 09:23:51;;;;;;;23.10;16.27;;;;;;;;;;5035407;28;20585;-65
2022/03/20 09:26:17;;;;;;;24.65;16.83;;;;;;;;;;5036029;28;20040;-65
2022/03/20 09:28:47;;;;;;;24.55;17.00;;;;;;;;;;5052969;28;20134;-65
2022/03/20 09:31:13;;;;;;;27.65;16.75;;;;;;;;;;5036746;28;20175;-65
2022/03/20 09:33:39;;;;;;;29.08;17.33;;;;;;;;;;5057335;28;20473;-65
2022/03/20 09:36:06;;;;;;;27.08;17.75;;;;;;;;;;5056995;28;20036;-65
2022/03/20 09:38:33;;;;;;;28.05;16.83;;;;;;;;;;5075286;28;20036;-65
2022/03/20 09:41:00;;;;;;;26.88;17.10;;;;;;;;;;5056972;28;20044;-65
2022/03/20 09:43:26;;;;;;;26.58;17.23;;;;;;;;;;5057134;28;20185;-65
2022/03/20 09:45:53;;;;;;;24.85;13.48;;;;;;;;;;5057443;28;20045;-65
2022/03/20 09:48:19;;;;;;;27.67;17.50;;;;;;;;;;5040570;28;20446;-65
2022/03/20 09:50:48;;;;;;;25.77;17.77;;;;;;;;;;5056950;28;20064;-65
2022/03/20 09:53:14;;;;;;;27.95;17.17;;;;;;;;;;5074708;28;20040;-65
2022/03/20 09:55:40;;;;;;;24.30;17.40;;;;;;;;;;5066106;28;20036;-65
2022/03/20 09:58:06;;;;;;;24.50;16.90;;;;;;;;;;5056837;28;20101;-65
2022/03/20 10:00:32;;;;;;;29.83;18.60;;;;;;;;;;5056211;28;20075;-65
2022/03/20 10:02:58;;;;;;;26.95;17.90;;;;;;;;;;5057076;28;20142;-65
2022/03/20 10:05:28;;;;;;;28.90;18.65;;;;;;;;;;5056479;28;20052;-65
2022/03/20 10:07:54;;;;;;;26.45;17.63;;;;;;;;;;5056313;28;20039;-65
2022/03/20 10:10:25;;;;;;;26.98;17.40;;;;;;;;;;5054406;28;20059;-65
2022/03/20 10:12:56;;;;;;;29.98;17.42;;;;;;;;;;5047760;28;20063;-65
2022/03/20 10:15:30;;;;;;;29.92;18.23;;;;;;;;;;5056936;28;20045;-65
2022/03/20 10:18:20;;;;;;;28.15;18.90;;;;;;;;;;5056803;28;20059;-65
2022/03/20 10:20:49;;;;;;;29.08;19.05;;;;;;;;;;5056267;28;20052;-65
2022/03/20 10:23:36;;;;;;;24.83;16.98;;;;;;;;;;5067022;28;20362;-65
2022/03/20 10:26:06;;;;;;;30.27;19.20;;;;;;;;;;5073766;28;20036;-65
2022/03/20 10:28:36;;;;;;;29.80;18.15;;;;;;;;;;5055755;28;20043;-65
2022/03/20 10:31:03;;;;;;;26.40;17.80;;;;;;;;;;5056019;28;20061;-65
2022/03/20 10:33:30;;;;;;;31.40;18.67;;;;;;;;;;5056178;28;20388;-65
2022/03/20 10:36:09;;;;;;;29.33;19.58;;;;;;;;;;5055982;28;20036;-65
2022/03/20 10:38:38;;;;;;;29.38;18.80;;;;;;;;;;5055772;28;20045;-65
2022/03/20 10:41:24;;;;;;;29.23;18.38;;;;;;;;;;5055915;28;20520;-65
2022/03/20 10:43:50;;;;;;;31.58;18.98;;;;;;;;;;5054774;28;20041;-65
2022/03/20 10:46:20;;;;;;;28.38;19.92;;;;;;;;;;5071597;28;20052;-67
2022/03/20 10:48:48;;;;;;;29.05;18.77;;;;;;;;;;5067458;28;20087;-72
2022/03/20 10:51:14;;;;;;;25.83;18.63;;;;;;;;;;5054094;28;20388;-66
2022/03/20 10:53:58;;;;;;;31.08;18.98;;;;;;;;;;5039189;28;20048;-65
2022/03/20 10:56:24;;;;;;;29.13;19.33;;;;;;;;;;5038958;28;20512;-65
2022/03/20 10:58:51;;;;;;;33.97;18.90;;;;;;;;;;5055324;28;20044;-65
2022/03/20 11:01:17;;;;;;;27.05;17.55;;;;;;;;;;5041792;28;20041;-65
2022/03/20 11:03:43;;;;;;;30.08;19.17;;;;;;;;;;5055697;28;20041;-65
2022/03/20 11:06:10;;;;;;;32.42;18.65;;;;;;;;;;5055416;28;20123;-65
2022/03/20 11:08:39;;;;;;;29.27;19.02;;;;;;;;;;5038736;28;20047;-65
2022/03/20 11:11:10;;;;;;;29.33;19.73;;;;;;;;;;5055309;28;20057;-65
2022/03/20 11:13:38;;;;;;;29.08;19.65;;;;;;;;;;5055227;28;20040;-65
2022/03/20 11:16:08;;;;;;;31.73;19.67;;;;;;;;;;5055033;28;20032;-65
2022/03/20 11:18:35;;;;;;;31.23;19.90;;;;;;;;;;5073197;28;20044;-65
2022/03/20 11:21:03;;;;;;;28.73;19.77;;;;;;;;;;5035424;28;20099;-65
2022/03/20 11:23:29;;;;;;;30.88;19.95;;;;;;;;;;5051125;28;20044;-65
2022/03/20 11:25:57;;;;;;;27.88;19.00;;;;;;;;;;5055282;28;20045;-65
2022/03/20 11:28:24;;;;;;;31.63;19.23;;;;;;;;;;5055011;28;20056;-65
2022/03/20 11:30:50;;;;;;;33.03;19.92;;;;;;;;;;5054895;28;20039;-65
2022/03/20 11:33:20;;;;;;;28.10;19.65;;;;;;;;;;5055178;28;20072;-65
2022/03/20 11:35:46;;;;;;;27.60;19.70;;;;;;;;;;5054898;28;20044;-65
2022/03/20 11:38:12;;;;;;;31.77;21.17;;;;;;;;;;5038756;28;20044;-65
2022/03/20 11:40:41;;;;;;;29.67;19.00;;;;;;;;;;5054680;28;20489;-65
2022/03/20 11:43:22;;;;;;;26.17;19.60;;;;;;;;;;5054895;28;20507;-65
2022/03/20 11:46:07;;;;;;;28.95;18.52;;;;;;;;;;5054649;28;20048;-65
2022/03/20 11:48:33;;;;;;;28.60;20.30;;;;;;;;;;5054642;28;20385;-65
2022/03/20 11:50:59;;;;;;;28.95;20.38;;;;;;;;;;5041204;28;20102;-65
2022/03/20 11:53:28;;;;;;;32.78;20.52;;;;;;;;;;5053195;28;20036;-65
2022/03/20 11:55:55;;;;;;;29.52;20.67;;;;;;;;;;5066429;28;20090;-65
2022/03/20 11:58:21;;;;;;;29.27;19.77;;;;;;;;;;5046614;28;20048;-65
2022/03/20 12:01:05;;;;;;;30.08;20.13;;;;;;;;;;5072603;28;20045;-65
2022/03/20 12:03:43;;;;;;;28.55;20.45;;;;;;;;;;5072743;28;20044;-65
2022/03/20 12:06:15;;;;;;;27.08;19.90;;;;;;;;;;5054446;28;20508;-65
2022/03/20 12:08:41;;;;;;;30.42;20.75;;;;;;;;;;5049189;28;20036;-65
2022/03/20 12:11:23;;;;;;;30.20;20.38;;;;;;;;;;5068818;28;20076;-65
2022/03/20 12:13:53;;;;;;;31.10;19.55;;;;;;;;;;5051278;28;20102;-65
2022/03/20 12:16:38;;;;;;;34.10;20.70;;;;;;;;;;5054557;28;20459;-65
2022/03/20 12:19:08;;;;;;;31.88;20.23;;;;;;;;;;5054811;28;20131;-65
2022/03/20 12:21:52;;;;;;;28.85;20.10;;;;;;;;;;5053908;28;20052;-65
2022/03/20 12:24:49;;;;;;;33.92;20.50;;;;;;;;;;5054312;28;20508;-65
2022/03/20 12:27:24;;;;;;;29.50;20.50;;;;;;;;;;5054412;28;20507;-65
2022/03/20 12:29:57;;;;;;;29.75;19.25;;;;;;;;;;5072116;28;20052;-65
2022/03/20 12:32:24;;;;;;;30.92;20.13;;;;;;;;;;5054357;28;20043;-65
2022/03/20 12:35:06;;;;;;;29.80;20.35;;;;;;;;;;5053990;28;20036;-65
2022/03/20 12:37:33;;;;;;;28.65;20.00;;;;;;;;;;5054165;28;20397;-65
2022/03/20 12:40:18;;;;;;;29.80;20.45;;;;;;;;;;5053674;28;20507;-65
2022/03/20 12:42:55;;;;;;;32.60;20.92;;;;;;;;;;5054102;28;20083;-65
2022/03/20 12:45:21;;;;;;;31.67;21.05;;;;;;;;;;5053123;28;20511;-65
2022/03/20 12:48:00;;;;;;;28.55;20.33;;;;;;;;;;5053953;28;20048;-65
2022/03/20 12:50:28;;;;;;;33.08;21.13;;;;;;;;;;5053568;28;20060;-65
2022/03/20 12:52:55;;;;;;;30.13;20.83;;;;;;;;;;5054390;28;20048;-65
2022/03/20 12:55:25;;;;;;;33.05;21.23;;;;;;;;;;5054476;28;20420;-66
2022/03/20 12:57:52;;;;;;;33.35;21.42;;;;;;;;;;5053815;28;20507;-66
2022/03/20 13:00:22;;;;;;;30.83;21.02;;;;;;;;;;5058942;28;20113;-69
2022/03/20 13:02:56;;;;;;;31.80;20.67;;;;;;;;;;5054083;28;20040;-68
2022/03/20 13:05:22;;;;;;;29.15;20.10;;;;;;;;;;5071770;28;20037;-66
2022/03/20 13:07:48;;;;;;;33.22;20.80;;;;;;;;;;5056745;28;20178;-65
2022/03/20 13:10:16;;;;;;;30.60;20.77;;;;;;;;;;5038339;28;20095;-65
2022/03/20 13:12:49;;;;;;;31.30;21.05;;;;;;;;;;5051790;28;20037;-65
2022/03/20 13:15:50;;;;;;;30.65;20.60;;;;;;;;;;5040480;28;20491;-65
2022/03/20 13:18:17;;;;;;;28.75;20.65;;;;;;;;;;4977919;28;20136;-65
2022/03/20 13:20:44;;;;;;;29.35;21.00;;;;;;;;;;5042558;28;20048;-65
2022/03/20 13:23:28;;;;;;;28.88;20.35;;;;;;;;;;5054903;28;20051;-65
2022/03/20 13:25:58;;;;;;;31.20;21.17;;;;;;;;;;5057252;28;20040;-66
2022/03/20 13:28:28;;;;;;;29.15;20.30;;;;;;;;;;5041039;28;20044;-66
2022/03/20 13:30:59;;;;;;;34.83;21.23;;;;;;;;;;5075743;28;20090;-66
2022/03/20 13:33:30;;;;;;;31.40;20.58;;;;;;;;;;5057496;28;20115;-65
2022/03/20 13:35:56;;;;;;;30.33;20.90;;;;;;;;;;5060884;28;20041;-66
2022/03/20 13:38:22;;;;;;;30.95;21.42;;;;;;;;;;5057885;28;20128;-66
2022/03/20 13:40:48;;;;;;;30.60;20.38;;;;;;;;;;5057412;28;20113;-66
2022/03/20 13:43:23;;;;;;;32.15;20.75;;;;;;;;;;5075125;28;20119;-66
2022/03/20 13:45:49;;;;;;;31.48;21.40;;;;;;;;;;5057317;28;20047;-66
2022/03/20 13:48:17;;;;;;;32.08;20.20;;;;;;;;;;5056842;28;20041;-65
2022/03/20 13:50:43;;;;;;;32.40;21.42;;;;;;;;;;5056697;28;20092;-65
2022/03/20 13:53:10;;;;;;;29.98;21.10;;;;;;;;;;5071909;28;20041;-66
2022/03/20 13:55:38;;;;;;;32.72;21.00;;;;;;;;;;5058748;28;20366;-66
2022/03/20 13:58:06;;;;;;;29.33;20.63;;;;;;;;;;5057046;28;20119;-66
2022/03/20 14:00:32;;;;;;;31.02;20.55;;;;;;;;;;5057015;28;20047;-66
2022/03/20 14:02:58;;;;;;;28.88;20.45;;;;;;;;;;5056866;28;20123;-65
2022/03/20 14:05:24;;;;;;;31.23;20.75;;;;;;;;;;5056806;28;20136;-65
2022/03/20 14:08:04;;;;;;;29.85;20.25;;;;;;;;;;5056684;28;20044;-66
2022/03/20 14:10:30;;;;;;;28.52;20.25;;;;;;;;;;5057220;28;20146;-65
2022/03/20 14:13:15;;;;;;;30.10;20.75;;;;;;;;;;5056474;28;20226;-66
2022/03/20 14:15:41;;;;;;;28.83;20.83;;;;;;;;;;5057118;28;20045;-65
2022/03/20 14:18:12;;;;;;;30.13;21.25;;;;;;;;;;5056356;28;20477;-66
2022/03/20 14:20:38;;;;;;;30.00;21.65;;;;;;;;;;5074450;28;20393;-66
2022/03/20 14:23:10;;;;;;;31.63;22.52;;;;;;;;;;5056611;28;20488;-66
2022/03/20 14:25:45;;;;;;;33.08;20.95;;;;;;;;;;5074236;28;20044;-66
2022/03/20 14:28:23;;;;;;;27.60;20.33;;;;;;;;;;5056601;28;20051;-66
2022/03/20 14:39:28;;;;;;;30.73;20.85;;;;;;;;;;5054322;28;20464;-66
2022/03/20 14:41:54;;;;;;;30.33;21.05;;;;;;;;;;5036290;28;20099;-67
2022/03/20 14:44:28;;;;;;;31.55;20.73;;;;;;;;;;5057682;28;20109;-66
2022/03/20 14:46:56;;;;;;;31.13;21.67;;;;;;;;;;5053234;28;20044;-66
2022/03/20 14:49:24;;;;;;;30.50;21.35;;;;;;;;;;5055533;28;20513;-66
2022/03/20 14:51:56;;;;;;;29.73;21.50;;;;;;;;;;5056232;28;20052;-66
2022/03/20 14:54:26;;;;;;;28.73;20.42;;;;;;;;;;5056081;28;20123;-66
2022/03/20 14:56:56;;;;;;;29.58;21.15;;;;;;;;;;5064240;28;20044;-66
2022/03/20 14:59:23;;;;;;;34.83;23.52;;;;;;;;;;5054256;28;20098;-66
2022/03/20 15:01:51;;;;;;;35.85;25.15;;;;;;;;;;5058066;28;20045;-66
2022/03/20 15:04:18;;;;;;;33.92;24.75;;;;;;;;;;5051866;28;20052;-66
2022/03/20 15:06:49;;;;;;;33.58;25.63;;;;;;;;;;5056028;28;20044;-66
2022/03/20 15:12:00;;;;;;;35.30;26.15;;;;;;;;;;5055498;28;20103;-66
2022/03/20 15:14:27;;;;;;;38.33;27.83;;;;;;;;;;5054417;28;20113;-69